createdAt,value
2022-08-26T00:00:48.066Z,0.00
2022-08-26T00:01:48.091Z,0.00
2022-08-26T00:02:48.038Z,0.00
2022-08-26T00:03:48.077Z,0.00
2022-08-26T00:04:48.031Z,0.00
2022-08-26T00:05:48.025Z,0.00
2022-08-26T00:06:49.024Z,0.00
2022-08-26T00:07:48.009Z,0.00
2022-08-26T00:08:47.959Z,0.00
2022-08-26T00:09:47.940Z,0.00
2022-08-26T00:10:48.152Z,0.00
2022-08-26T00:11:47.939Z,0.00
2022-08-26T00:12:48.769Z,0.00
2022-08-26T00:13:49.589Z,0.00
2022-08-26T00:14:48.221Z,0.00
2022-08-26T00:15:47.931Z,0.00
2022-08-26T00:16:49.012Z,0.00
2022-08-26T00:17:48.052Z,0.00
2022-08-26T00:18:48.474Z,0.00
2022-08-26T00:19:47.824Z,0.00
2022-08-26T00:20:47.855Z,0.00
2022-08-26T00:21:48.555Z,0.00
2022-08-26T00:22:47.783Z,0.00
2022-08-26T00:23:47.795Z,0.00
2022-08-26T00:24:48.530Z,0.00
2022-08-26T00:25:47.786Z,0.00
2022-08-26T00:26:47.727Z,0.00
2022-08-26T00:27:47.816Z,0.00
2022-08-26T00:28:48.126Z,0.00
2022-08-26T00:29:47.714Z,0.00
2022-08-26T00:30:47.950Z,0.00
2022-08-26T00:31:47.734Z,0.00
2022-08-26T00:32:47.923Z,0.00
2022-08-26T00:33:48.256Z,0.00
2022-08-26T00:34:48.076Z,0.00
2022-08-26T00:35:47.896Z,0.00
2022-08-26T00:36:50.878Z,0.00
2022-08-26T00:37:48.026Z,0.00
2022-08-26T00:38:47.696Z,0.00
2022-08-26T00:39:47.775Z,0.00
2022-08-26T00:40:47.600Z,0.00
2022-08-26T00:41:47.827Z,0.00
2022-08-26T00:42:47.840Z,0.00
2022-08-26T00:43:48.100Z,0.00
2022-08-26T00:44:48.277Z,0.00
2022-08-26T00:45:47.964Z,0.00
2022-08-26T00:46:48.375Z,0.00
2022-08-26T00:47:47.588Z,0.00
2022-08-26T00:48:48.000Z,0.00
2022-08-26T00:49:48.545Z,0.00
2022-08-26T00:50:47.674Z,0.00
2022-08-26T00:51:47.544Z,0.00
2022-08-26T00:52:48.273Z,0.00
2022-08-26T00:53:47.439Z,0.00
2022-08-26T00:54:47.668Z,0.00
2022-08-26T00:55:47.594Z,0.00
2022-08-26T00:56:47.570Z,0.00
2022-08-26T00:57:47.375Z,0.00
2022-08-26T00:58:47.443Z,0.00
2022-08-26T00:59:47.683Z,0.00
2022-08-26T01:00:47.507Z,0.00
2022-08-26T01:01:47.655Z,0.00
2022-08-26T01:02:47.569Z,0.00
2022-08-26T01:03:47.713Z,0.00
2022-08-26T01:04:47.647Z,0.00
2022-08-26T01:05:47.494Z,0.00
2022-08-26T01:06:47.628Z,0.00
2022-08-26T01:07:47.319Z,0.00
2022-08-26T01:08:47.522Z,0.00
2022-08-26T01:09:47.272Z,0.00
2022-08-26T01:10:47.730Z,0.00
2022-08-26T01:11:47.533Z,0.00
2022-08-26T01:12:47.529Z,0.00
2022-08-26T01:13:47.198Z,0.00
2022-08-26T01:14:47.337Z,0.00
2022-08-26T01:15:47.202Z,0.00
2022-08-26T01:16:47.331Z,0.00
2022-08-26T01:17:47.562Z,0.00
2022-08-26T01:18:47.560Z,0.00
2022-08-26T01:19:47.335Z,0.00
2022-08-26T01:20:47.427Z,0.00
2022-08-26T01:21:47.225Z,0.00
2022-08-26T01:22:47.194Z,0.00
2022-08-26T01:23:47.298Z,0.00
2022-08-26T01:24:47.255Z,0.00
2022-08-26T01:25:47.194Z,0.00
2022-08-26T01:26:47.361Z,0.00
2022-08-26T01:27:47.247Z,0.00
2022-08-26T01:28:50.623Z,0.00
2022-08-26T01:29:47.104Z,0.00
2022-08-26T01:30:47.267Z,0.00
2022-08-26T01:31:47.410Z,0.00
2022-08-26T01:32:47.098Z,0.00
2022-08-26T01:33:47.166Z,0.00
2022-08-26T01:34:47.254Z,0.00
2022-08-26T01:35:47.107Z,0.00
2022-08-26T01:36:51.171Z,0.00
2022-08-26T01:37:47.234Z,0.00
2022-08-26T01:38:47.118Z,0.00
2022-08-26T01:39:47.135Z,0.00
2022-08-26T01:40:47.065Z,0.00
2022-08-26T01:41:47.262Z,0.00
2022-08-26T01:42:48.466Z,0.00
2022-08-26T01:43:46.905Z,0.00
2022-08-26T01:44:47.124Z,0.00
2022-08-26T01:45:47.065Z,0.00
2022-08-26T01:46:47.904Z,0.00
2022-08-26T01:47:47.155Z,0.00
2022-08-26T01:48:47.208Z,0.00
2022-08-26T01:49:47.284Z,0.00
2022-08-26T01:50:46.952Z,0.00
2022-08-26T01:51:47.073Z,0.00
2022-08-26T01:52:49.883Z,0.00
2022-08-26T01:53:46.988Z,0.00
2022-08-26T01:54:50.542Z,0.00
2022-08-26T01:55:47.000Z,0.00
2022-08-26T01:56:46.964Z,0.00
2022-08-26T01:57:46.795Z,0.00
2022-08-26T01:58:46.786Z,0.00
2022-08-26T01:59:46.895Z,0.00
2022-08-26T02:00:47.520Z,0.00
2022-08-26T02:01:46.783Z,0.00
2022-08-26T02:02:46.778Z,0.00
2022-08-26T02:03:46.701Z,0.00
2022-08-26T02:04:46.704Z,0.00
2022-08-26T02:05:46.744Z,0.00
2022-08-26T02:06:46.817Z,0.00
2022-08-26T02:07:46.772Z,0.00
2022-08-26T02:08:46.630Z,0.00
2022-08-26T02:09:46.706Z,0.00
2022-08-26T02:10:46.659Z,0.00
2022-08-26T02:11:46.606Z,0.00
2022-08-26T02:12:46.752Z,0.00
2022-08-26T02:13:46.638Z,0.00
2022-08-26T02:14:46.506Z,0.00
2022-08-26T02:15:46.513Z,0.00
2022-08-26T02:16:46.591Z,0.00
2022-08-26T02:17:46.548Z,0.00
2022-08-26T02:18:47.021Z,0.00
2022-08-26T02:19:46.640Z,0.00
2022-08-26T02:20:46.549Z,0.00
2022-08-26T02:21:46.484Z,0.00
2022-08-26T02:22:46.450Z,0.00
2022-08-26T02:23:46.527Z,0.00
2022-08-26T02:24:47.083Z,0.00
2022-08-26T02:25:46.559Z,0.00
2022-08-26T02:26:46.578Z,0.00
2022-08-26T02:27:46.492Z,0.00
2022-08-26T02:28:46.488Z,0.00
2022-08-26T02:29:46.460Z,0.00
2022-08-26T02:30:46.630Z,0.00
2022-08-26T02:31:46.550Z,0.00
2022-08-26T02:32:49.563Z,0.00
2022-08-26T02:33:46.332Z,0.00
2022-08-26T02:34:46.332Z,0.00
2022-08-26T02:35:46.258Z,0.00
2022-08-26T02:36:46.379Z,0.00
2022-08-26T02:37:46.282Z,0.00
2022-08-26T02:38:46.544Z,0.00
2022-08-26T02:39:46.264Z,0.00
2022-08-26T02:40:46.194Z,0.00
2022-08-26T02:41:46.433Z,0.00
2022-08-26T02:42:46.269Z,0.00
2022-08-26T02:43:46.480Z,0.00
2022-08-26T02:44:46.368Z,0.00
2022-08-26T02:45:46.163Z,0.00
2022-08-26T02:46:47.244Z,0.00
2022-08-26T02:47:46.142Z,0.00
2022-08-26T02:48:46.218Z,0.00
2022-08-26T02:49:47.201Z,0.00
2022-08-26T02:50:46.109Z,0.00
2022-08-26T02:51:46.216Z,0.00
2022-08-26T02:52:46.150Z,0.00
2022-08-26T02:53:46.120Z,0.00
2022-08-26T02:54:46.186Z,0.00
2022-08-26T02:55:46.076Z,0.00
2022-08-26T02:56:46.035Z,0.00
2022-08-26T02:57:46.051Z,0.00
2022-08-26T02:58:47.076Z,0.00
2022-08-26T02:59:46.078Z,0.00
2022-08-26T03:00:52.603Z,0.00
2022-08-26T03:01:46.162Z,0.00
2022-08-26T03:02:45.965Z,0.00
2022-08-26T03:03:45.985Z,0.00
2022-08-26T03:04:57.820Z,0.00
2022-08-26T03:05:46.203Z,0.00
2022-08-26T03:06:47.035Z,0.00
2022-08-26T03:07:46.272Z,0.00
2022-08-26T03:08:45.921Z,0.00
2022-08-26T03:09:45.892Z,0.00
2022-08-26T03:10:45.967Z,0.00
2022-08-26T03:11:45.958Z,0.00
2022-08-26T03:12:47.433Z,0.00
2022-08-26T03:13:45.859Z,0.00
2022-08-26T03:14:45.989Z,0.00
2022-08-26T03:15:46.028Z,0.00
2022-08-26T03:16:48.434Z,0.00
2022-08-26T03:17:45.900Z,0.00
2022-08-26T03:18:51.978Z,0.00
2022-08-26T03:19:45.789Z,0.00
2022-08-26T03:20:45.968Z,0.00
2022-08-26T03:21:47.400Z,0.00
2022-08-26T03:22:45.897Z,0.00
2022-08-26T03:23:46.091Z,0.00
2022-08-26T03:24:46.619Z,0.00
2022-08-26T03:25:45.759Z,0.00
2022-08-26T03:26:52.920Z,0.00
2022-08-26T03:27:46.006Z,0.00
2022-08-26T03:28:46.626Z,0.00
2022-08-26T03:29:45.793Z,0.00
2022-08-26T03:30:45.936Z,0.00
2022-08-26T03:31:46.875Z,0.00
2022-08-26T03:32:45.803Z,0.00
2022-08-26T03:33:45.756Z,0.00
2022-08-26T03:34:45.737Z,0.00
2022-08-26T03:35:45.638Z,0.00
2022-08-26T03:36:46.035Z,0.00
2022-08-26T03:37:45.833Z,0.00
2022-08-26T03:38:45.592Z,0.00
2022-08-26T03:39:45.526Z,0.00
2022-08-26T03:40:45.986Z,0.00
2022-08-26T03:41:46.651Z,0.00
2022-08-26T03:42:45.749Z,0.00
2022-08-26T03:43:45.571Z,0.00
2022-08-26T03:44:45.636Z,0.00
2022-08-26T03:45:46.087Z,0.00
2022-08-26T03:46:45.667Z,0.00
2022-08-26T03:47:45.532Z,0.00
2022-08-26T03:48:45.807Z,0.00
2022-08-26T03:49:45.649Z,4.00
2022-08-26T03:50:45.436Z,4.00
2022-08-26T03:51:45.479Z,4.00
2022-08-26T03:52:45.627Z,0.00
2022-08-26T03:53:45.477Z,4.00
2022-08-26T03:54:45.538Z,4.00
2022-08-26T03:55:45.797Z,4.00
2022-08-26T03:56:46.560Z,8.00
2022-08-26T03:57:45.495Z,8.00
2022-08-26T03:58:45.869Z,8.00
2022-08-26T03:59:45.373Z,8.00
2022-08-26T04:00:46.134Z,8.00
2022-08-26T04:01:45.516Z,12.00
2022-08-26T04:02:45.404Z,16.00
2022-08-26T04:03:45.291Z,16.00
2022-08-26T04:04:45.257Z,16.00
2022-08-26T04:05:45.257Z,20.00
2022-08-26T04:06:45.356Z,28.00
2022-08-26T04:07:45.343Z,32.00
2022-08-26T04:08:45.394Z,36.00
2022-08-26T04:09:45.235Z,40.00
2022-08-26T04:10:45.429Z,48.00
2022-08-26T04:11:45.399Z,52.00
2022-08-26T04:12:45.601Z,64.00
2022-08-26T04:13:45.427Z,72.00
2022-08-26T04:14:45.155Z,84.00
2022-08-26T04:15:45.337Z,96.00
2022-08-26T04:16:45.218Z,104.00
2022-08-26T04:17:45.304Z,120.00
2022-08-26T04:18:46.664Z,132.00
2022-08-26T04:19:45.089Z,148.00
2022-08-26T04:20:45.099Z,164.00
2022-08-26T04:21:45.075Z,180.00
2022-08-26T04:22:45.060Z,200.00
2022-08-26T04:23:47.066Z,220.00
2022-08-26T04:24:45.105Z,244.00
2022-08-26T04:25:45.019Z,264.00
2022-08-26T04:26:44.987Z,292.00
2022-08-26T04:27:44.977Z,316.00
2022-08-26T04:28:45.032Z,344.00
2022-08-26T04:29:44.967Z,372.00
2022-08-26T04:30:45.115Z,400.00
2022-08-26T04:31:45.066Z,436.00
2022-08-26T04:32:44.946Z,468.00
2022-08-26T04:33:44.983Z,500.00
2022-08-26T04:34:45.065Z,536.00
2022-08-26T04:35:44.896Z,568.00
2022-08-26T04:36:45.072Z,604.00
2022-08-26T04:37:45.147Z,640.00
2022-08-26T04:38:44.891Z,676.00
2022-08-26T04:39:44.854Z,716.00
2022-08-26T04:40:46.745Z,756.00
2022-08-26T04:41:44.873Z,792.00
2022-08-26T04:42:44.871Z,832.00
2022-08-26T04:43:44.821Z,880.00
2022-08-26T04:44:45.856Z,932.00
2022-08-26T04:45:44.781Z,984.00
2022-08-26T04:46:44.838Z,1036.00
2022-08-26T04:47:44.766Z,1088.00
2022-08-26T04:48:48.473Z,1140.00
2022-08-26T04:49:44.930Z,1188.00
2022-08-26T04:50:44.934Z,1244.00
2022-08-26T04:58:35.913Z,1624.00
2022-08-26T05:32:46.967Z,3068.00
2022-08-26T05:33:47.951Z,3108.00
2022-08-26T05:34:47.877Z,3136.00
2022-08-26T05:35:47.933Z,3156.00
2022-08-26T05:36:47.853Z,3180.00
2022-08-26T05:37:48.096Z,3216.00
2022-08-26T05:38:47.833Z,3236.00
2022-08-26T05:39:51.019Z,3260.00
2022-08-26T05:40:47.868Z,3284.00
2022-08-26T05:41:47.811Z,3312.00
2022-08-26T05:42:47.812Z,3340.00
2022-08-26T05:43:47.823Z,3368.00
2022-08-26T05:44:55.703Z,3396.00
2022-08-26T05:45:47.754Z,3420.00
2022-08-26T05:46:47.800Z,3444.00
2022-08-26T05:47:47.727Z,3468.00
2022-08-26T05:48:47.832Z,3496.00
2022-08-26T05:49:49.471Z,3524.00
2022-08-26T05:50:47.708Z,3556.00
2022-08-26T05:51:48.101Z,3588.00
2022-08-26T05:52:47.654Z,3616.00
2022-08-26T05:53:54.770Z,3640.00
2022-08-26T05:54:47.832Z,3672.00
2022-08-26T05:55:47.702Z,3704.00
2022-08-26T05:56:47.628Z,3744.00
2022-08-26T05:57:47.815Z,3784.00
2022-08-26T05:58:47.795Z,3820.00
2022-08-26T05:59:47.581Z,3856.00
2022-08-26T06:00:48.536Z,3884.00
2022-08-26T06:01:47.689Z,3916.00
2022-08-26T06:02:48.427Z,3940.00
2022-08-26T06:03:47.592Z,3972.00
2022-08-26T06:04:47.549Z,3992.00
2022-08-26T06:05:47.538Z,4012.00
2022-08-26T06:06:47.509Z,4036.00
2022-08-26T06:07:47.552Z,4060.00
2022-08-26T06:08:47.498Z,4084.00
2022-08-26T06:09:47.501Z,4104.00
2022-08-26T06:10:47.459Z,4124.00
2022-08-26T06:11:47.444Z,4148.00
2022-08-26T06:12:47.445Z,4168.00
2022-08-26T06:13:47.487Z,4188.00
2022-08-26T06:14:49.025Z,4208.00
2022-08-26T06:15:47.615Z,4232.00
2022-08-26T06:16:47.481Z,4264.00
2022-08-26T06:17:47.498Z,4292.00
2022-08-26T06:18:47.689Z,4320.00
2022-08-26T06:21:04.038Z,4388.00
2022-08-26T06:22:04.484Z,4412.00
2022-08-26T06:23:04.597Z,4440.00
2022-08-26T06:24:04.505Z,4464.00
2022-08-26T06:25:04.412Z,4492.00
2022-08-26T06:26:04.430Z,4520.00
2022-08-26T06:27:04.466Z,4540.00
2022-08-26T06:28:04.416Z,4556.00
2022-08-26T06:29:04.341Z,4572.00
2022-08-26T06:30:04.346Z,4596.00
2022-08-26T06:31:04.550Z,4612.00
2022-08-26T06:32:04.348Z,4640.00
2022-08-26T06:33:04.431Z,4668.00
2022-08-26T06:34:07.367Z,4704.00
2022-08-26T06:35:04.309Z,4736.00
2022-08-26T06:36:05.014Z,4760.00
2022-08-26T06:37:04.333Z,4792.00
2022-08-26T06:38:04.721Z,4812.00
2022-08-26T06:39:04.234Z,4844.00
2022-08-26T06:40:04.718Z,4872.00
2022-08-26T06:41:04.375Z,4908.00
2022-08-26T06:42:06.256Z,4932.00
2022-08-26T06:43:04.383Z,4952.00
2022-08-26T06:44:04.352Z,4960.00
2022-08-26T06:45:04.450Z,4984.00
2022-08-26T06:46:04.989Z,5016.00
2022-08-26T06:47:04.398Z,5040.00
2022-08-26T06:48:04.973Z,5064.00
2022-08-26T06:49:04.209Z,5092.00
2022-08-26T06:50:04.360Z,5120.00
2022-08-26T06:51:04.212Z,5144.00
2022-08-26T06:52:04.229Z,5184.00
2022-08-26T06:53:04.337Z,5236.00
2022-08-26T06:54:04.084Z,5268.00
2022-08-26T06:55:04.118Z,5300.00
2022-08-26T06:56:04.388Z,5352.00
2022-08-26T06:57:04.107Z,5376.00
2022-08-26T06:58:05.178Z,5408.00
2022-08-26T06:59:04.295Z,5464.00
2022-08-26T07:00:04.081Z,5536.00
2022-08-26T07:01:11.201Z,5608.00
2022-08-26T07:02:04.844Z,5684.00
2022-08-26T07:03:07.555Z,5756.00
2022-08-26T07:04:04.375Z,5804.00
2022-08-26T07:05:04.159Z,5868.00
2022-08-26T07:06:04.289Z,5956.00
2022-08-26T07:07:04.139Z,5980.00
2022-08-26T07:08:04.089Z,6016.00
2022-08-26T07:09:04.245Z,6076.00
2022-08-26T07:10:04.180Z,6600.00
2022-08-26T07:11:04.162Z,8356.00
2022-08-26T07:12:03.946Z,7120.00
2022-08-26T07:13:04.084Z,8644.00
2022-08-26T07:14:04.369Z,9420.00
2022-08-26T07:15:03.969Z,9556.00
2022-08-26T07:16:04.509Z,9360.00
2022-08-26T07:17:03.996Z,9880.00
2022-08-26T07:18:03.868Z,11084.00
2022-08-26T07:19:10.988Z,11624.00
2022-08-26T07:20:03.829Z,11516.00
2022-08-26T07:21:03.806Z,12044.00
2022-08-26T07:22:04.242Z,7568.00
2022-08-26T07:23:03.762Z,7384.00
2022-08-26T07:24:03.765Z,7544.00
2022-08-26T07:25:03.818Z,7664.00
2022-08-26T07:26:03.814Z,8860.00
2022-08-26T07:27:03.705Z,8744.00
2022-08-26T07:28:03.713Z,8356.00
2022-08-26T07:29:03.686Z,9596.00
2022-08-26T07:30:03.686Z,8456.00
2022-08-26T07:31:03.772Z,9492.00
2022-08-26T07:32:03.752Z,10348.00
2022-08-26T07:33:03.667Z,9916.00
2022-08-26T07:34:03.633Z,9332.00
2022-08-26T07:35:03.637Z,9460.00
2022-08-26T07:36:04.164Z,10276.00
2022-08-26T07:37:03.641Z,8924.00
2022-08-26T07:38:03.673Z,9904.00
2022-08-26T07:39:03.641Z,10016.00
2022-08-26T07:40:03.620Z,8720.00
2022-08-26T07:41:03.625Z,8956.00
2022-08-26T07:42:07.393Z,8960.00
2022-08-26T07:43:03.566Z,10780.00
2022-08-26T07:44:04.335Z,10488.00
2022-08-26T07:45:03.820Z,10992.00
2022-08-26T07:46:03.535Z,10076.00
2022-08-26T07:47:03.520Z,12352.00
2022-08-26T07:48:04.060Z,11720.00
2022-08-26T07:49:03.557Z,10804.00
2022-08-26T07:50:03.512Z,10908.00
2022-08-26T07:51:03.658Z,10712.00
2022-08-26T07:52:03.462Z,13792.00
2022-08-26T07:53:04.563Z,12576.00
2022-08-26T07:54:03.439Z,10708.00
2022-08-26T07:55:03.416Z,13532.00
2022-08-26T07:56:03.582Z,12176.00
2022-08-26T07:57:05.136Z,12188.00
2022-08-26T07:58:03.463Z,12648.00
2022-08-26T07:59:04.331Z,11464.00
2022-08-26T08:00:03.359Z,8700.00
2022-08-26T08:01:03.406Z,8484.00
2022-08-26T08:02:03.493Z,9596.00
2022-08-26T08:03:03.527Z,10776.00
2022-08-26T08:04:03.507Z,9744.00
2022-08-26T08:05:03.424Z,13136.00
2022-08-26T08:06:03.316Z,15244.00
2022-08-26T08:07:03.316Z,12740.00
2022-08-26T08:08:19.735Z,14392.00
2022-08-26T08:09:03.321Z,13548.00
2022-08-26T08:10:06.701Z,14048.00
2022-08-26T08:11:03.331Z,13716.00
2022-08-26T08:12:03.247Z,14528.00
2022-08-26T08:13:03.203Z,14304.00
2022-08-26T08:14:03.364Z,14300.00
2022-08-26T08:15:03.244Z,13632.00
2022-08-26T08:16:03.208Z,14240.00
2022-08-26T08:17:04.038Z,15064.00
2022-08-26T08:18:03.166Z,13392.00
2022-08-26T08:19:03.807Z,16864.00
2022-08-26T08:20:03.220Z,14716.00
2022-08-26T08:21:20.931Z,14536.00
2022-08-26T08:22:03.111Z,13296.00
2022-08-26T08:23:03.140Z,12888.00
2022-08-26T08:24:05.021Z,14116.00
2022-08-26T08:25:03.094Z,14440.00
2022-08-26T08:26:03.177Z,14464.00
2022-08-26T08:27:03.063Z,13564.00
2022-08-26T08:28:03.353Z,13540.00
2022-08-26T08:29:03.045Z,15176.00
2022-08-26T08:30:03.093Z,13432.00
2022-08-26T08:31:03.385Z,13444.00
2022-08-26T08:32:04.125Z,12972.00
2022-08-26T08:33:03.491Z,14400.00
2022-08-26T08:34:03.065Z,12776.00
2022-08-26T08:35:03.035Z,12708.00
2022-08-26T08:36:02.997Z,11984.00
2022-08-26T08:37:04.376Z,13980.00
2022-08-26T08:38:04.293Z,13208.00
2022-08-26T08:39:03.042Z,12444.00
2022-08-26T08:40:02.982Z,11792.00
2022-08-26T08:41:05.535Z,12156.00
2022-08-26T08:42:02.886Z,11732.00
2022-08-26T08:43:02.886Z,11440.00
2022-08-26T08:44:02.937Z,12192.00
2022-08-26T08:45:02.925Z,12236.00
2022-08-26T08:46:02.973Z,12064.00
2022-08-26T08:47:03.129Z,13128.00
2022-08-26T08:48:02.877Z,13016.00
2022-08-26T08:49:02.946Z,12360.00
2022-08-26T08:50:02.888Z,11896.00
2022-08-26T08:51:03.475Z,10596.00
2022-08-26T08:52:02.925Z,10580.00
2022-08-26T08:53:02.825Z,10344.00
2022-08-26T08:54:03.065Z,10516.00
2022-08-26T08:55:02.826Z,10540.00
2022-08-26T08:56:02.786Z,9832.00
2022-08-26T08:57:02.762Z,9912.00
2022-08-26T08:58:02.791Z,10540.00
2022-08-26T08:59:02.755Z,10752.00
2022-08-26T09:00:02.693Z,10340.00
2022-08-26T09:01:02.732Z,10280.00
2022-08-26T09:02:03.069Z,9244.00
2022-08-26T09:03:02.691Z,8180.00
2022-08-26T09:04:02.627Z,7448.00
2022-08-26T09:05:02.674Z,7692.00
2022-08-26T09:06:03.476Z,7056.00
2022-08-26T09:07:02.764Z,7912.00
2022-08-26T09:08:02.860Z,8432.00
2022-08-26T09:09:02.653Z,8384.00
2022-08-26T09:10:02.658Z,8204.00
2022-08-26T09:11:02.605Z,8292.00
2022-08-26T09:12:02.793Z,8356.00
2022-08-26T09:13:02.676Z,8620.00
2022-08-26T09:14:02.587Z,8032.00
2022-08-26T09:15:03.630Z,8500.00
2022-08-26T09:16:02.527Z,8300.00
2022-08-26T09:17:02.621Z,7744.00
2022-08-26T09:18:02.541Z,8452.00
2022-08-26T09:19:02.496Z,8648.00
2022-08-26T09:20:02.809Z,10904.00
2022-08-26T09:21:03.309Z,11336.00
2022-08-26T09:22:06.979Z,11440.00
2022-08-26T09:23:02.492Z,11988.00
2022-08-26T09:24:02.438Z,11752.00
2022-08-26T09:25:02.404Z,11020.00
2022-08-26T09:26:02.542Z,9704.00
2022-08-26T09:27:02.406Z,10588.00
2022-08-26T09:28:02.626Z,11928.00
2022-08-26T09:29:02.383Z,14156.00
2022-08-26T09:30:02.372Z,15520.00
2022-08-26T09:31:03.517Z,11908.00
2022-08-26T09:32:02.391Z,7864.00
2022-08-26T09:33:02.335Z,5340.00
2022-08-26T09:34:02.364Z,4776.00
2022-08-26T09:35:02.389Z,4520.00
2022-08-26T09:36:02.405Z,4752.00
2022-08-26T09:37:04.527Z,5704.00
2022-08-26T09:38:02.388Z,7444.00
2022-08-26T09:39:02.288Z,9836.00
2022-08-26T09:40:02.521Z,9892.00
2022-08-26T09:41:02.303Z,9228.00
2022-08-26T09:42:02.349Z,8928.00
2022-08-26T09:43:02.230Z,10548.00
2022-08-26T09:44:02.300Z,12196.00
2022-08-26T09:45:02.324Z,11384.00
2022-08-26T09:46:02.318Z,13072.00
2022-08-26T09:47:02.215Z,15316.00
2022-08-26T09:48:02.315Z,15088.00
2022-08-26T09:49:02.204Z,15532.00
2022-08-26T09:50:03.323Z,16672.00
2022-08-26T09:51:02.199Z,16896.00
2022-08-26T09:52:02.436Z,14608.00
2022-08-26T09:53:02.213Z,15400.00
2022-08-26T09:54:02.312Z,15404.00
2022-08-26T09:55:02.164Z,15940.00
2022-08-26T09:56:02.224Z,17600.00
2022-08-26T09:57:02.135Z,17984.00
2022-08-26T09:58:04.124Z,17696.00
2022-08-26T09:59:02.337Z,19456.00
2022-08-26T10:00:02.839Z,17920.00
2022-08-26T10:01:03.053Z,18016.00
2022-08-26T10:03:02.182Z,15560.00
2022-08-26T10:04:02.056Z,13908.00
2022-08-26T10:05:08.983Z,13168.00
2022-08-26T10:06:02.002Z,12996.00
2022-08-26T10:07:02.027Z,11720.00
2022-08-26T10:08:02.025Z,11492.00
2022-08-26T10:09:03.594Z,10912.00
2022-08-26T10:10:02.012Z,10704.00
2022-08-26T10:11:01.963Z,12492.00
2022-08-26T10:12:01.953Z,13280.00
2022-08-26T10:13:02.080Z,13928.00
2022-08-26T10:14:01.967Z,14344.00
2022-08-26T10:15:01.974Z,15140.00
2022-08-26T10:16:01.874Z,14912.00
2022-08-26T10:17:01.993Z,15128.00
2022-08-26T10:18:01.983Z,14428.00
2022-08-26T10:19:02.161Z,13364.00
2022-08-26T10:20:02.263Z,13920.00
2022-08-26T10:21:01.884Z,13896.00
2022-08-26T10:22:02.132Z,15576.00
2022-08-26T10:23:02.028Z,15640.00
2022-08-26T10:24:01.985Z,14612.00
2022-08-26T10:25:02.748Z,15904.00
2022-08-26T10:26:02.079Z,16416.00
2022-08-26T10:27:02.146Z,15784.00
2022-08-26T10:28:01.895Z,14120.00
2022-08-26T10:29:01.964Z,14724.00
2022-08-26T10:30:01.957Z,13892.00
2022-08-26T10:31:02.649Z,13512.00
2022-08-26T10:32:03.592Z,12116.00
2022-08-26T10:33:02.030Z,10652.00
2022-08-26T10:34:01.791Z,10312.00
2022-08-26T10:35:01.993Z,9992.00
2022-08-26T10:36:01.964Z,10724.00
2022-08-26T10:37:14.473Z,10788.00
2022-08-26T10:38:01.987Z,11892.00
2022-08-26T10:39:02.020Z,11048.00
2022-08-26T10:40:01.710Z,12076.00
2022-08-26T10:41:01.591Z,12560.00
2022-08-26T10:42:01.643Z,12884.00
2022-08-26T10:43:01.709Z,12016.00
2022-08-26T10:44:01.825Z,11452.00
2022-08-26T10:45:01.542Z,10148.00
2022-08-26T10:46:01.623Z,9848.00
2022-08-26T10:47:01.576Z,11628.00
2022-08-26T10:48:01.590Z,13548.00
2022-08-26T10:49:03.215Z,12344.00
2022-08-26T10:50:03.430Z,11680.00
2022-08-26T10:51:01.493Z,12272.00
2022-08-26T10:52:01.585Z,13240.00
2022-08-26T10:53:01.650Z,14108.00
2022-08-26T10:54:01.688Z,15768.00
2022-08-26T10:55:01.620Z,14592.00
2022-08-26T10:56:01.537Z,13760.00
2022-08-26T10:57:01.505Z,13552.00
2022-08-26T10:58:05.031Z,13244.00
2022-08-26T10:59:01.456Z,13264.00
2022-08-26T11:00:01.703Z,12520.00
2022-08-26T11:01:02.524Z,12504.00
2022-08-26T11:02:03.859Z,11308.00
2022-08-26T11:03:01.342Z,10724.00
2022-08-26T11:04:01.398Z,11788.00
2022-08-26T11:05:01.335Z,12288.00
2022-08-26T11:06:01.333Z,11332.00
2022-08-26T11:07:01.350Z,10148.00
2022-08-26T11:08:01.407Z,11164.00
2022-08-26T11:09:01.279Z,12048.00
2022-08-26T11:10:01.301Z,14816.00
2022-08-26T11:11:01.281Z,14188.00
2022-08-26T11:12:09.991Z,13640.00
2022-08-26T11:13:01.761Z,13424.00
2022-08-26T11:14:01.311Z,12996.00
2022-08-26T11:15:01.280Z,14488.00
2022-08-26T11:16:01.409Z,15920.00
2022-08-26T11:17:01.328Z,15360.00
2022-08-26T11:18:01.158Z,14644.00
2022-08-26T11:19:01.144Z,15008.00
2022-08-26T11:20:03.887Z,16832.00
2022-08-26T11:21:01.135Z,15972.00
2022-08-26T11:22:01.157Z,16304.00
2022-08-26T11:23:01.130Z,16588.00
2022-08-26T11:24:01.135Z,17568.00
2022-08-26T11:25:01.098Z,17344.00
2022-08-26T11:26:01.158Z,17920.00
2022-08-26T11:27:01.073Z,19104.00
2022-08-26T11:28:01.135Z,19616.00
2022-08-26T11:29:01.038Z,20576.00
2022-08-26T11:30:01.066Z,22048.00
2022-08-26T11:31:01.031Z,22464.00
2022-08-26T11:32:01.111Z,24800.00
2022-08-26T11:33:01.042Z,26176.00
2022-08-26T11:34:01.057Z,26080.00
2022-08-26T11:35:01.039Z,22880.00
2022-08-26T11:36:00.985Z,19456.00
2022-08-26T11:37:00.962Z,16348.00
2022-08-26T11:38:01.015Z,15820.00
2022-08-26T11:39:00.988Z,19296.00
2022-08-26T11:40:01.010Z,20416.00
2022-08-26T11:41:00.912Z,20320.00
2022-08-26T11:42:00.914Z,23040.00
2022-08-26T11:43:00.906Z,21472.00
2022-08-26T11:44:01.299Z,21792.00
2022-08-26T11:45:05.402Z,23616.00
2022-08-26T11:46:00.954Z,25376.00
2022-08-26T11:47:00.881Z,28800.00
2022-08-26T11:48:00.898Z,28448.00
2022-08-26T11:49:00.839Z,27552.00
2022-08-26T11:50:00.843Z,25984.00
2022-08-26T11:51:00.822Z,24128.00
2022-08-26T11:52:00.849Z,26560.00
2022-08-26T11:53:00.805Z,31200.00
2022-08-26T11:54:00.776Z,31200.00
2022-08-26T11:55:00.775Z,30272.00
2022-08-26T11:56:01.304Z,28992.00
2022-08-26T11:57:02.895Z,28096.00
2022-08-26T11:58:00.752Z,31328.00
2022-08-26T11:59:02.515Z,29088.00
2022-08-26T12:00:00.714Z,30464.00
2022-08-26T12:01:00.705Z,28928.00
2022-08-26T12:02:00.760Z,28576.00
2022-08-26T12:03:00.723Z,32128.00
2022-08-26T12:04:01.503Z,31968.00
2022-08-26T12:05:00.662Z,27616.00
2022-08-26T12:06:00.655Z,27168.00
2022-08-26T12:07:00.665Z,24896.00
2022-08-26T12:08:00.689Z,26912.00
2022-08-26T12:09:01.625Z,31328.00
2022-08-26T12:10:00.648Z,33952.00
2022-08-26T12:11:00.622Z,30880.00
2022-08-26T12:12:00.606Z,22752.00
2022-08-26T12:13:00.657Z,20448.00
2022-08-26T12:14:00.617Z,19584.00
2022-08-26T12:15:00.633Z,19040.00
2022-08-26T12:16:00.675Z,21088.00
2022-08-26T12:17:00.582Z,24416.00
2022-08-26T12:18:00.507Z,25312.00
2022-08-26T12:19:00.599Z,20832.00
2022-08-26T12:20:00.577Z,23392.00
2022-08-26T12:21:00.567Z,24864.00
2022-08-26T12:22:00.527Z,26400.00
2022-08-26T12:23:00.485Z,24832.00
2022-08-26T12:24:00.465Z,20736.00
2022-08-26T12:25:00.449Z,21728.00
2022-08-26T12:26:00.625Z,20256.00
2022-08-26T12:27:02.032Z,22176.00
2022-08-26T12:28:00.485Z,23744.00
2022-08-26T12:29:12.720Z,20192.00
2022-08-26T12:30:00.406Z,21664.00
2022-08-26T12:31:00.973Z,19520.00
2022-08-26T12:32:00.897Z,17760.00
2022-08-26T12:33:00.342Z,17120.00
2022-08-26T12:34:00.385Z,16896.00
2022-08-26T12:35:00.496Z,16544.00
2022-08-26T12:36:00.514Z,16456.00
2022-08-26T12:38:00.586Z,17440.00
2022-08-26T12:39:00.400Z,18976.00
2022-08-26T12:40:00.417Z,17728.00
2022-08-26T12:41:00.372Z,17568.00
2022-08-26T12:42:00.257Z,20032.00
2022-08-26T12:43:00.483Z,19552.00
2022-08-26T12:44:01.208Z,18368.00
2022-08-26T12:45:00.500Z,19136.00
2022-08-26T12:46:01.632Z,22912.00
2022-08-26T12:47:00.262Z,18208.00
2022-08-26T12:48:00.171Z,18848.00
2022-08-26T12:49:00.163Z,19168.00
2022-08-26T12:50:00.385Z,22432.00
2022-08-26T12:51:00.250Z,27328.00
2022-08-26T12:52:00.335Z,24160.00
2022-08-26T12:53:00.582Z,21888.00
2022-08-26T12:54:00.268Z,30016.00
2022-08-26T12:55:00.264Z,34784.00
2022-08-26T12:56:00.194Z,26912.00
2022-08-26T12:57:00.186Z,44352.00
2022-08-26T12:58:00.223Z,50272.00
2022-08-26T12:59:00.229Z,34752.00
2022-08-26T13:00:00.410Z,31072.00
2022-08-26T13:01:00.549Z,32544.00
2022-08-26T13:02:00.533Z,38912.00
2022-08-26T13:03:00.179Z,38944.00
2022-08-26T13:04:00.428Z,42816.00